METAR Data
IDs: Format: Raw Decoded Include TAF

Data at: 2018 UTC 19 May 2019

PAVL 191953Z AUTO 28008KT 10SM CLR 06/04 A2989 RMK AO2 SLP123 T00610039 TSNO
PAVL 191853Z AUTO 28007KT 10SM CLR 06/03 A2990 RMK AO2 SLP125 T00560033 TSNO
PAVL 191753Z AUTO 29005KT 10SM CLR 04/03 A2990 RMK AO2 SLP125 T00440028 10044 21006 51006 TSNO
PAVL 191700Z AUTO 31006KT 10SM SCT024 03/02 A2989 RMK AO2 T00330022 TSNO
PAVL 191653Z AUTO 30005KT 10SM BKN024 03/02 A2989 RMK AO2 SLP123 T00330017 TSNO
PAVL 191650Z AUTO 30005KT 10SM BKN025 03/02 A2989 RMK AO2 TSNO
PAVL 191553Z AUTO 34004KT 10SM CLR 02/01 A2988 RMK AO2 SLP120 T00170006 TSNO
PAVL 191508Z AUTO 36003KT 10SM FEW002 00/M01 A2988 RMK AO2 T00001006 TSNO
PAVL 191453Z AUTO 00000KT 10SM CLR 00/M01 A2988 RMK AO2 SLP118 T00001006 53004 TSNO
PAVL 191436Z AUTO 00000KT 10SM SCT001 M01/M01 A2988 RMK AO2 T10061006 TSNO
PAVL 191431Z AUTO 00000KT 2SM BR BKN001 M01/M01 A2988 RMK AO2 T10061006 TSNO
PAVL 191353Z AUTO 00000KT 1/4SM FG VV002 00/00 A2988 RMK AO2 SLP117 T00000000 TSNO
PAVL 191317Z AUTO 00000KT 3/4SM BR BKN002 BKN027 M01/M01 A2987 RMK AO2 T10061006 TSNO
PAVL 191311Z AUTO 00000KT 1 3/4SM BR SCT001 BKN028 M01/M01 A2987 RMK AO2 T10061006 TSNO
PAVL 191304Z AUTO 06005KT 1/2SM FG FEW001 SCT028 00/M01 A2987 RMK AO2 T00001006 TSNO
PAVL 191253Z AUTO 05004KT 1/4SM FG FEW001 BKN028 00/00 A2987 RMK AO2 SLP115 T00000000 TSNO
PAVL 191245Z AUTO 06004KT 1/2SM FG FEW002 SCT029 01/00 A2987 RMK AO2 T00060000 TSNO
PAVL 191241Z AUTO 04004KT 7SM FEW002 SCT029 01/00 A2987 RMK AO2 T00060000 TSNO
PAVL 191222Z AUTO 35005KT 10SM OVC029 01/01 A2987 RMK AO2 T00110006 TSNO
PAVL 191153Z AUTO 33006KT 8SM OVC031 01/01 A2987 RMK AO2 SLP113 70002 T00110006 10022 20011 51004 TSNO
PAVL 191053Z AUTO 32004KT 10SM OVC034 01/01 A2987 RMK AO2 SLP113 T00110006 TSNO
PAVL 190953Z AUTO 33006KT 3SM BR OVC035 01/00 A2986 RMK AO2 SLP111 T00110000 TSNO
PAVL 190853Z AUTO 34004KT 10SM OVC034 02/01 A2985 RMK AO2 SLP109 T00170006 400720011 53014 TSNO
PAVL 190753Z AUTO 35005KT 10SM OVC030 01/00 A2984 RMK AO2 SLP104 T00110000 TSNO
PAVL 190653Z AUTO 27005KT 10SM SCT012 OVC032 02/01 A2983 RMK AO2 SLP100 T00220006 TSNO
PAVL 190610Z AUTO 27004KT 8SM SCT006 BKN011 OVC033 02/01 A2982 RMK AO2 T00220011 TSNO
PAVL 190553Z AUTO 26003KT 10SM OVC006 02/01 A2981 RMK AO2 SLP096 60000 T00220011 10039 20022 52013 TSNO
PAVL 190453Z AUTO 25003KT 10SM OVC007 02/02 A2980 RMK AO2 SLP091 T00220017 TSNO
PAVL 190353Z AUTO 23006KT 10SM OVC007 03/02 A2979 RMK AO2 CIG 005V012 SLP087 T00330017 TSNO
PAVL 190253Z AUTO 22005KT 9SM OVC006 03/03 A2978 RMK AO2 RAE05 SLP083 P0000 60000 T00330028 51011 TSNO
PAVL 190153Z AUTO 19006KT 9SM -RA OVC006 03/03 A2977 RMK AO2 RAB45 SLP080 P0000 T00330028 TSNO
PAVL 190053Z AUTO 19008KT 7SM OVC005 04/03 A2976 RMK AO2 SLP076 T00390033 TSNO
PAVL 190033Z AUTO 18009KT 8SM OVC005 04/03 A2975 RMK AO2 T00390028 TSNO
PAVL 182353Z AUTO 19009KT 7SM OVC004 04/03 A2974 RMK AO2 SLP072 60001 T00390033 10050 20033 51013 TSNO
PAVL 182340Z AUTO 18009KT 6SM BR OVC004 03/03 A2974 RMK AO2 T00330033 TSNO
PAVL 182311Z AUTO 18010KT 1 3/4SM BR OVC006 03/03 A2974 RMK AO2 T00330033 TSNO
PAVL 182253Z AUTO 17012KT 6SM BR OVC006 04/03 A2973 RMK AO2 SLP068 T00390033 TSNO
PAVL 182246Z AUTO 17013KT 5SM BR BKN006 OVC014 04/04 A2973 RMK AO2 T00390039 TSNO
PAVL 182232Z AUTO 16012KT 5SM BR SCT007 OVC013 04/03 A2972 RMK AO2 T00390033 TSNO
PAVL 182209Z AUTO 16014KT 4SM BR OVC013 04/03 A2972 RMK AO2 T00390033 TSNO
PAVL 182202Z AUTO 16012KT 5SM BR SCT009 OVC015 04/03 A2972 RMK AO2 T00390033 TSNO
PAVL 182153Z AUTO 16013KT 2SM BR FEW009 OVC017 04/03 A2972 RMK AO2 SLP063 T00390033 TSNO
PAVL 182145Z AUTO 16013KT 2SM BR FEW009 OVC017 04/03 A2971 RMK AO2 T00390033 TSNO
PAVL 182122Z AUTO 15012KT 9SM SCT006 OVC018 04/03 A2971 RMK AO2 T00390033 TSNO
PAVL 182053Z AUTO 15014KT 9SM BKN006 BKN017 OVC041 04/03 A2970 RMK AO2 RAB19E36 SLP059 P0001 60001 T00390033 51011 TSNO
PAVL 182048Z AUTO 15014KT 9SM BKN006 BKN019 OVC041 04/03 A2970 RMK AO2 RAB19E36 P0001 TSNO
PAVL 182023Z AUTO 16016KT 5SM -RA BR SCT006 BKN032 OVC075 03/03 A2969 RMK AO2 RAB19 P0001 T00330028 TSNO
PAVL 181953Z AUTO 15018KT 10SM BKN006 OVC019 03/03 A2969 RMK AO2 SLP052 T00330028 TSNO
PAVL 181853Z AUTO 16016KT 9SM BKN005 BKN009 OVC016 03/03 A2967 RMK AO2 RAE1757 SLP048 P0000 T00330033 TSNO
PAVL 181753Z AUTO 15017KT 8SM -RA OVC009 05/04 A2965 RMK AO2 RAB22 SLP039 P0000 60001 T00500044 10061 20017 53001 TSNO
PAVL 181704Z AUTO 11009KT 5SM BR BKN009 BKN012 OVC035 05/04 A2964 RMK AO2 T00500044 TSNO
PAVL 181653Z AUTO 10011KT 6SM BR BKN012 BKN020 OVC034 05/04 A2964 RMK AO2 RAB14E46 SLP037 P0001 T00500044 TSNO
PAVL 181651Z AUTO 10010KT 7SM BKN012 BKN022 OVC034 05/04 A2964 RMK AO2 RAB14E46 P0001 TSNO
PAVL 181633Z AUTO 11011KT 4SM -RA BR SCT012 BKN021 OVC034 06/04 A2964 RMK AO2 RAB14 P0001 T00560044 TSNO
PAVL 181621Z AUTO 11009KT 4SM -RA BR FEW014 SCT022 OVC036 06/04 A2964 RMK AO2 RAB14 P0000 T00560044 TSNO
PAVL 181553Z AUTO 09006KT 10SM OVC025 06/04 A2964 RMK AO2 RAB07E19 SLP037 P0000 T00560039 TSNO
PAVL 181525Z AUTO 08009KT 10SM BKN022 OVC031 04/02 A2964 RMK AO2 RAB07E19 P0000 T00390022 TSNO
PAVL 181453Z AUTO 07004KT 10SM OVC037 04/02 A2964 RMK AO2 RAB40E49 SLP038 P0000 60000 T00440022 53002 TSNO
PAVL 181353Z AUTO 07007KT 10SM OVC039 04/02 A2964 RMK AO2 SLP037 T00440017 TSNO
PAVL 181253Z AUTO 06007KT 10SM BKN041 OVC060 03/02 A2964 RMK AO2 SLP036 T00330017 TSNO
PAVL 181153Z AUTO 08008KT 10SM OVC065 03/01 A2964 RMK AO2 SLP035 T00280011 10094 20022 51008 TSNO
PAVL 181053Z AUTO 04005KT 10SM FEW090 02/01 A2963 RMK AO2 SLP034 T00220011 TSNO
PAVL 180953Z AUTO 07005KT 10SM OVC080 04/03 A2963 RMK AO2 SLP032 T00440033 TSNO
PAVL 180853Z AUTO 18006KT 10SM FEW075 07/04 A2961 RMK AO2 SLP028 T00670039 401220017 51012 TSNO